Time;durP1;ratioP1;P1;durP2;ratioP2;P2;SDS_P1;SDS_P2;PMS_P1;PMS_P2;Temp;Humidity;BMP_temperature;BMP_pressure;BME280_temperature;BME280_humidity;BME280_pressure;Samples;Min_cycle;Max_cycle;Signal;HPM_P1;HPM_P2
2022/02/17 00:00:06;;;;;;;;;;;22.60;41.50;;;;;;5036656;28;19913;-46
2022/02/17 00:02:44;;;;;;;;;;;22.60;41.50;;;;;;5053188;28;19919;-47
2022/02/17 00:05:11;;;;;;;;;;;22.50;41.50;;;;;;5055137;28;19904;-46
2022/02/17 00:07:37;;;;;;;;;;;22.60;41.50;;;;;;5053373;28;19905;-44
2022/02/17 00:10:05;;;;;;;;;;;22.50;41.50;;;;;;5055104;28;19965;-48
2022/02/17 00:12:31;;;;;;;;;;;22.50;41.50;;;;;;5037622;28;19916;-49
2022/02/17 00:14:57;;;;;;;;;;;22.60;41.50;;;;;;5047844;28;19905;-45
2022/02/17 00:17:24;;;;;;;;;;;22.60;41.60;;;;;;5051098;28;20346;-46
2022/02/17 00:19:50;;;;;;;;;;;22.60;41.50;;;;;;5022349;28;19999;-46
2022/02/17 00:22:16;;;;;;;;;;;22.50;41.50;;;;;;5032228;28;19904;-47
2022/02/17 00:24:42;;;;;;;;;;;22.60;41.50;;;;;;5044937;28;19909;-45
2022/02/17 00:27:08;;;;;;;;;;;22.50;41.50;;;;;;5052809;28;19915;-47
2022/02/17 00:29:33;;;;;;;;;;;22.50;41.50;;;;;;5053783;28;19936;-46
2022/02/17 00:31:59;;;;;;;;;;;22.50;41.50;;;;;;5055483;28;19905;-46
2022/02/17 00:34:25;;;;;;;;;;;22.50;42.10;;;;;;5044996;28;19921;-46
2022/02/17 00:36:51;;;;;;;;;;;22.50;41.50;;;;;;5039317;28;19905;-44
2022/02/17 00:39:16;;;;;;;;;;;22.50;41.50;;;;;;5038982;28;19944;-43
2022/02/17 00:41:44;;;;;;;;;;;22.50;41.50;;;;;;5022781;28;19905;-45
2022/02/17 00:44:10;;;;;;;;;;;22.50;41.50;;;;;;5047973;28;19905;-42
2022/02/17 00:46:36;;;;;;;;;;;22.50;41.50;;;;;;5039332;28;20253;-44
2022/02/17 00:49:02;;;;;;;;;;;22.50;41.50;;;;;;5041170;28;20381;-44
2022/02/17 00:51:28;;;;;;;;;;;22.50;41.50;;;;;;5042480;28;19909;-45
2022/02/17 00:53:54;;;;;;;;;;;22.40;41.40;;;;;;5038761;28;19970;-45
2022/02/17 00:56:20;;;;;;;;;;;22.50;41.40;;;;;;5040286;28;20058;-43
2022/02/17 00:58:50;;;;;;;;;;;22.50;41.40;;;;;;5030432;28;19916;-47
2022/02/17 01:01:23;;;;;;;;;;;22.50;41.40;;;;;;5035889;28;20365;-42
2022/02/17 01:03:49;;;;;;;;;;;22.40;41.30;;;;;;5048585;28;19995;-45
2022/02/17 01:06:15;;;;;;;;;;;22.40;41.40;;;;;;5047004;28;20223;-43
2022/02/17 01:08:40;;;;;;;;;;;22.40;41.30;;;;;;5058044;28;19909;-43
2022/02/17 01:11:07;;;;;;;;;;;22.40;41.30;;;;;;5024018;28;20289;-45
2022/02/17 01:13:33;;;;;;;;;;;22.40;41.30;;;;;;5044839;28;20367;-49
2022/02/17 01:15:59;;;;;;;;;;;22.40;41.30;;;;;;5058954;28;19901;-46
2022/02/17 01:18:25;;;;;;;;;;;22.40;41.30;;;;;;5036674;28;20331;-46
2022/02/17 01:20:52;;;;;;;;;;;22.40;41.30;;;;;;5041327;28;19995;-47
2022/02/17 01:23:17;;;;;;;;;;;22.40;41.30;;;;;;5039735;28;19999;-50
2022/02/17 01:25:43;;;;;;;;;;;22.40;41.30;;;;;;5031041;28;19995;-47
2022/02/17 01:28:09;;;;;;;;;;;22.40;41.30;;;;;;5055056;28;20275;-47
2022/02/17 01:30:35;;;;;;;;;;;22.40;41.30;;;;;;5058197;28;19952;-45
2022/02/17 01:33:01;;;;;;;;;;;22.40;41.20;;;;;;5037617;28;19959;-48
2022/02/17 01:35:28;;;;;;;;;;;22.40;41.20;;;;;;5040750;28;19954;-46
2022/02/17 01:38:01;;;;;;;;;;;22.30;41.10;;;;;;5030684;28;20922;-46
2022/02/17 01:40:28;;;;;;;;;;;22.30;41.10;;;;;;5020683;28;20320;-46
2022/02/17 01:42:53;;;;;;;;;;;22.40;41.10;;;;;;5043884;28;19920;-43
2022/02/17 01:45:19;;;;;;;;;;;22.30;41.00;;;;;;5037884;28;20288;-45
2022/02/17 01:47:46;;;;;;;;;;;22.40;41.00;;;;;;5054438;28;19904;-44
2022/02/17 01:50:12;;;;;;;;;;;22.30;40.90;;;;;;5028654;28;19937;-50
2022/02/17 01:52:38;;;;;;;;;;;22.30;40.80;;;;;;5050466;28;19971;-45
2022/02/17 01:55:04;;;;;;;;;;;22.30;40.80;;;;;;5021217;28;19919;-46
2022/02/17 01:57:30;;;;;;;;;;;22.30;40.80;;;;;;5053287;28;19916;-45
2022/02/17 02:00:03;;;;;;;;;;;22.30;40.70;;;;;;5029519;28;19913;-44
2022/02/17 02:02:42;;;;;;;;;;;22.30;40.70;;;;;;5037618;28;19905;-44
2022/02/17 02:05:08;;;;;;;;;;;22.30;40.70;;;;;;5037752;28;19916;-44
2022/02/17 02:07:33;;;;;;;;;;;22.30;40.60;;;;;;5053938;28;19905;-44
2022/02/17 02:10:01;;;;;;;;;;;22.30;40.60;;;;;;5027856;28;19905;-45
2022/02/17 02:12:30;;;;;;;;;;;22.30;40.50;;;;;;5041072;28;19905;-45
2022/02/17 02:14:56;;;;;;;;;;;22.30;40.50;;;;;;5038217;28;20279;-47
2022/02/17 02:17:29;;;;;;;;;;;22.20;40.50;;;;;;5024684;28;20390;-47
2022/02/17 02:19:57;;;;;;;;;;;22.30;41.10;;;;;;5031159;28;19963;-44
2022/02/17 02:22:29;;;;;;;;;;;22.30;40.50;;;;;;5019978;28;19905;-44
2022/02/17 02:25:00;;;;;;;;;;;22.30;40.50;;;;;;5029978;28;19915;-44
2022/02/17 02:27:28;;;;;;;;;;;22.20;40.40;;;;;;5037686;28;20220;-44
2022/02/17 02:29:55;;;;;;;;;;;22.20;41.10;;;;;;5024653;28;19905;-44
2022/02/17 02:32:26;;;;;;;;;;;22.20;40.40;;;;;;5019657;28;19971;-43
2022/02/17 02:34:52;;;;;;;;;;;22.20;40.40;;;;;;5023221;28;19908;-46
2022/02/17 02:37:18;;;;;;;;;;;22.20;40.40;;;;;;5037461;28;19905;-44
2022/02/17 02:39:44;;;;;;;;;;;22.20;40.40;;;;;;5031586;28;19904;-46
2022/02/17 02:42:10;;;;;;;;;;;22.20;40.40;;;;;;5039671;28;19912;-44
2022/02/17 02:44:36;;;;;;;;;;;22.20;40.30;;;;;;5033196;28;20021;-46
2022/02/17 02:47:03;;;;;;;;;;;22.20;40.30;;;;;;5056300;28;19920;-46
2022/02/17 02:49:36;;;;;;;;;;;22.20;40.30;;;;;;5033321;28;19905;-46
2022/02/17 02:52:03;;;;;;;;;;;22.20;40.30;;;;;;5039233;28;19913;-44
2022/02/17 02:54:48;;;;;;;;;;;22.20;40.30;;;;;;5038918;28;19916;-46
2022/02/17 02:57:14;;;;;;;;;;;22.20;40.30;;;;;;5038994;28;20016;-43
2022/02/17 02:59:42;;;;;;;;;;;22.20;40.20;;;;;;5037667;28;19970;-47
2022/02/17 03:02:10;;;;;;;;;;;22.20;40.20;;;;;;5050225;28;20224;-43
2022/02/17 03:04:35;;;;;;;;;;;22.20;40.10;;;;;;5036384;28;19905;-48
2022/02/17 03:07:08;;;;;;;;;;;22.20;40.10;;;;;;5055579;28;19999;-45
2022/02/17 03:09:39;;;;;;;;;;;22.20;40.00;;;;;;5022320;28;20047;-46
2022/02/17 03:12:05;;;;;;;;;;;22.20;39.90;;;;;;5049171;28;19967;-45
2022/02/17 03:14:32;;;;;;;;;;;22.10;39.90;;;;;;5018864;28;19917;-49
2022/02/17 03:16:58;;;;;;;;;;;22.10;39.90;;;;;;5049528;28;19905;-47
2022/02/17 03:19:24;;;;;;;;;;;22.10;39.80;;;;;;5018822;28;19905;-45
2022/02/17 03:21:50;;;;;;;;;;;22.10;39.80;;;;;;5034571;28;19905;-43
2022/02/17 03:24:17;;;;;;;;;;;22.10;39.70;;;;;;5029597;28;19905;-45
2022/02/17 03:26:43;;;;;;;;;;;22.10;39.70;;;;;;5035840;28;20331;-45
2022/02/17 03:29:09;;;;;;;;;;;22.10;39.70;;;;;;5030079;28;19982;-43
2022/02/17 03:31:40;;;;;;;;;;;22.10;39.60;;;;;;5018735;28;19991;-49
2022/02/17 03:34:09;;;;;;;;;;;22.10;39.60;;;;;;5046890;28;19913;-47
2022/02/17 03:36:36;;;;;;;;;;;22.10;39.60;;;;;;5019045;28;20353;-50
2022/02/17 03:39:03;;;;;;;;;;;22.10;39.50;;;;;;5049062;28;19915;-43
2022/02/17 03:41:55;;;;;;;;;;;22.00;39.40;;;;;;5052791;28;19905;-45
2022/02/17 03:44:23;;;;;;;;;;;22.00;39.30;;;;;;5028194;28;19944;-44
2022/02/17 03:46:52;;;;;;;;;;;22.00;39.30;;;;;;5018480;28;19928;-46
2022/02/17 03:49:29;;;;;;;;;;;22.00;39.20;;;;;;5046450;28;20012;-46
2022/02/17 03:51:55;;;;;;;;;;;22.00;39.20;;;;;;5051285;28;19941;-49
2022/02/17 03:54:21;;;;;;;;;;;22.00;39.10;;;;;;5047859;28;19913;-48
2022/02/17 03:56:56;;;;;;;;;;;22.00;39.00;;;;;;5051070;28;19955;-48
2022/02/17 03:59:42;;;;;;;;;;;22.00;39.00;;;;;;5044353;28;19970;-49
2022/02/17 04:02:08;;;;;;;;;;;22.00;38.90;;;;;;5054344;28;20300;-51
2022/02/17 04:04:34;;;;;;;;;;;22.00;38.90;;;;;;5027436;28;19904;-48
2022/02/17 04:06:59;;;;;;;;;;;22.00;38.80;;;;;;5036255;28;19904;-47
2022/02/17 04:09:25;;;;;;;;;;;21.90;38.70;;;;;;5027017;28;19996;-44
2022/02/17 04:11:53;;;;;;;;;;;22.00;38.70;;;;;;5038255;28;20240;-46
2022/02/17 04:14:19;;;;;;;;;;;22.00;38.70;;;;;;5034433;28;19991;-47
2022/02/17 04:16:48;;;;;;;;;;;21.90;38.60;;;;;;5020413;28;19917;-44
2022/02/17 04:19:50;;;;;;;;;;;22.00;38.60;;;;;;4993460;28;19906;-45
2022/02/17 04:22:34;;;;;;;;;;;21.90;38.50;;;;;;5036498;28;20235;-49
2022/02/17 04:25:19;;;;;;;;;;;21.90;38.40;;;;;;5037574;28;20050;-46
2022/02/17 04:27:46;;;;;;;;;;;21.90;38.40;;;;;;5028760;28;20310;-44
2022/02/17 04:30:12;;;;;;;;;;;21.90;38.40;;;;;;5025347;28;19952;-44
2022/02/17 04:32:38;;;;;;;;;;;21.90;38.30;;;;;;5032985;28;19966;-45
2022/02/17 04:35:04;;;;;;;;;;;21.90;38.30;;;;;;5037713;28;19917;-44
2022/02/17 04:37:30;;;;;;;;;;;21.90;38.30;;;;;;5032390;28;19904;-45
2022/02/17 04:39:56;;;;;;;;;;;21.90;38.30;;;;;;5036716;28;20275;-46
2022/02/17 04:42:24;;;;;;;;;;;21.90;38.20;;;;;;5036750;28;19999;-47
2022/02/17 04:44:56;;;;;;;;;;;21.90;38.20;;;;;;5035518;28;19905;-44
2022/02/17 04:47:24;;;;;;;;;;;21.90;38.20;;;;;;5025246;28;19915;-48
2022/02/17 04:49:50;;;;;;;;;;;21.80;38.10;;;;;;5036720;28;19915;-48
2022/02/17 04:52:17;;;;;;;;;;;21.80;38.00;;;;;;5030053;28;19909;-45
2022/02/17 04:54:43;;;;;;;;;;;21.80;38.00;;;;;;5024561;28;20296;-46
2022/02/17 04:57:12;;;;;;;;;;;21.80;38.00;;;;;;5040056;28;19970;-48
2022/02/17 04:59:39;;;;;;;;;;;21.80;38.00;;;;;;5037291;28;19948;-43
2022/02/17 05:02:04;;;;;;;;;;;21.80;38.00;;;;;;5042286;28;19955;-46
2022/02/17 05:04:36;;;;;;;;;;;21.80;37.90;;;;;;5035144;28;19905;-46
2022/02/17 05:07:05;;;;;;;;;;;21.80;37.90;;;;;;5034840;28;20305;-46
2022/02/17 05:09:31;;;;;;;;;;;21.80;37.90;;;;;;5029863;28;20004;-44
2022/02/17 05:11:57;;;;;;;;;;;21.80;37.90;;;;;;5027817;28;19905;-44
2022/02/17 05:14:25;;;;;;;;;;;21.80;37.80;;;;;;5041333;28;19913;-45
2022/02/17 05:16:52;;;;;;;;;;;21.80;37.80;;;;;;5017550;28;19917;-48
2022/02/17 05:19:17;;;;;;;;;;;21.80;37.80;;;;;;5042253;28;20451;-45
2022/02/17 05:21:52;;;;;;;;;;;21.80;37.70;;;;;;5027125;28;19909;-45
2022/02/17 05:24:38;;;;;;;;;;;21.80;37.70;;;;;;5027235;28;19905;-45
2022/02/17 05:27:22;;;;;;;;;;;21.70;37.70;;;;;;5050463;28;19908;-46
2022/02/17 05:30:08;;;;;;;;;;;21.80;37.70;;;;;;5016489;28;19992;-47
2022/02/17 05:33:00;;;;;;;;;;;21.70;37.70;;;;;;5014926;28;19956;-47
2022/02/17 05:35:42;;;;;;;;;;;21.70;37.60;;;;;;5039334;28;20322;-46
2022/02/17 05:38:16;;;;;;;;;;;21.70;37.60;;;;;;5035190;28;19908;-48
2022/02/17 05:41:09;;;;;;;;;;;21.70;37.60;;;;;;5044455;28;19905;-50
2022/02/17 05:43:36;;;;;;;;;;;21.70;37.70;;;;;;5039636;28;19963;-45
2022/02/17 05:46:01;;;;;;;;;;;21.70;37.60;;;;;;5038147;28;20269;-48
2022/02/17 05:48:27;;;;;;;;;;;21.70;37.60;;;;;;5056389;28;19958;-45
2022/02/17 05:50:53;;;;;;;;;;;21.70;37.60;;;;;;5054946;28;20042;-46
2022/02/17 05:53:18;;;;;;;;;;;21.70;37.60;;;;;;5058270;28;20252;-48
2022/02/17 05:55:44;;;;;;;;;;;21.70;37.60;;;;;;5053490;28;19904;-47
2022/02/17 05:58:10;;;;;;;;;;;21.70;37.60;;;;;;5057036;28;19905;-45
2022/02/17 06:00:35;;;;;;;;;;;21.70;37.50;;;;;;5054089;28;20066;-46
2022/02/17 06:03:01;;;;;;;;;;;21.70;37.50;;;;;;5040429;28;19905;-47
2022/02/17 06:05:27;;;;;;;;;;;21.70;37.50;;;;;;5048462;28;19916;-49
2022/02/17 06:07:53;;;;;;;;;;;21.70;37.50;;;;;;5038404;28;19909;-49
2022/02/17 06:10:18;;;;;;;;;;;21.70;37.50;;;;;;5038277;28;20379;-47
2022/02/17 06:12:45;;;;;;;;;;;21.60;37.40;;;;;;5037811;28;19901;-47
2022/02/17 06:15:13;;;;;;;;;;;21.60;37.40;;;;;;5044521;28;19908;-47
2022/02/17 06:17:40;;;;;;;;;;;21.60;37.40;;;;;;5057383;28;19955;-46
2022/02/17 06:20:07;;;;;;;;;;;21.60;37.40;;;;;;5050982;28;20236;-46
2022/02/17 06:22:33;;;;;;;;;;;21.60;37.40;;;;;;5037251;28;19952;-45
2022/02/17 06:24:59;;;;;;;;;;;21.60;37.40;;;;;;5049324;28;19905;-47
2022/02/17 06:27:24;;;;;;;;;;;21.60;37.40;;;;;;5037379;28;20177;-46
2022/02/17 06:29:50;;;;;;;;;;;21.60;37.30;;;;;;5050076;28;19994;-46
2022/02/17 06:32:16;;;;;;;;;;;21.60;37.30;;;;;;5039723;28;19905;-47
2022/02/17 06:34:41;;;;;;;;;;;21.60;37.30;;;;;;5050311;28;20087;-46
2022/02/17 06:37:07;;;;;;;;;;;21.60;37.30;;;;;;5050461;28;19916;-46
2022/02/17 06:39:33;;;;;;;;;;;21.50;37.20;;;;;;5053720;28;19904;-46
2022/02/17 06:41:58;;;;;;;;;;;21.60;37.30;;;;;;5049145;28;20082;-45
2022/02/17 06:44:24;;;;;;;;;;;21.60;37.20;;;;;;5042992;28;19984;-44
2022/02/17 06:46:51;;;;;;;;;;;21.60;37.20;;;;;;5056834;28;19915;-43
2022/02/17 06:49:17;;;;;;;;;;;21.60;37.20;;;;;;5055949;28;19912;-44
2022/02/17 06:51:42;;;;;;;;;;;21.50;37.10;;;;;;5046134;28;19905;-45
2022/02/17 06:54:08;;;;;;;;;;;21.50;37.10;;;;;;5054613;28;19923;-43
2022/02/17 06:56:34;;;;;;;;;;;21.50;37.10;;;;;;5044124;28;19916;-45
2022/02/17 06:58:59;;;;;;;;;;;21.50;37.10;;;;;;5038557;28;20315;-44
2022/02/17 07:01:25;;;;;;;;;;;21.50;37.00;;;;;;5042858;28;19912;-46
2022/02/17 07:03:51;;;;;;;;;;;21.50;37.00;;;;;;5055385;28;19905;-45
2022/02/17 07:06:17;;;;;;;;;;;21.50;37.00;;;;;;5038306;28;20289;-48
2022/02/17 07:08:43;;;;;;;;;;;21.50;36.90;;;;;;5049274;28;19905;-47
2022/02/17 07:11:09;;;;;;;;;;;21.50;36.90;;;;;;5054632;28;19905;-46
2022/02/17 07:13:35;;;;;;;;;;;21.50;36.80;;;;;;5046955;28;19963;-43
2022/02/17 07:16:01;;;;;;;;;;;21.50;36.80;;;;;;5055646;28;19915;-46
2022/02/17 07:18:27;;;;;;;;;;;21.50;36.80;;;;;;5044851;28;20391;-44
2022/02/17 07:20:56;;;;;;;;;;;21.40;36.70;;;;;;5055807;28;19970;-48
2022/02/17 07:23:26;;;;;;;;;;;21.50;36.70;;;;;;5044743;28;20360;-47
2022/02/17 07:25:52;;;;;;;;;;;21.40;36.60;;;;;;5051695;28;20225;-44
2022/02/17 07:28:21;;;;;;;;;;;21.40;36.50;;;;;;5055105;28;20018;-45
2022/02/17 07:30:49;;;;;;;;;;;21.40;36.50;;;;;;5055578;28;19904;-44
2022/02/17 07:33:16;;;;;;;;;;;21.40;36.40;;;;;;5042140;28;19913;-51
2022/02/17 07:35:42;;;;;;;;;;;21.40;36.40;;;;;;5045400;28;19908;-45
2022/02/17 07:38:08;;;;;;;;;;;21.40;36.40;;;;;;5054593;28;19931;-51
2022/02/17 07:40:34;;;;;;;;;;;21.50;36.40;;;;;;5047368;28;20324;-47
2022/02/17 07:43:00;;;;;;;;;;;21.40;36.30;;;;;;5055417;28;19959;-49
2022/02/17 07:45:26;;;;;;;;;;;21.40;36.20;;;;;;5037412;28;19904;-48
2022/02/17 07:47:52;;;;;;;;;;;21.40;36.20;;;;;;5035961;28;19909;-46
2022/02/17 07:50:20;;;;;;;;;;;21.40;36.20;;;;;;5051572;28;19959;-46
2022/02/17 07:52:46;;;;;;;;;;;21.40;36.20;;;;;;5054448;28;19988;-46
2022/02/17 07:55:12;;;;;;;;;;;21.40;36.20;;;;;;5054642;28;20387;-44
2022/02/17 07:57:38;;;;;;;;;;;21.40;36.20;;;;;;5054356;28;19905;-44
2022/02/17 08:00:05;;;;;;;;;;;21.40;36.10;;;;;;5051764;28;19924;-44
2022/02/17 08:02:38;;;;;;;;;;;21.50;36.10;;;;;;5054810;28;19973;-47
2022/02/17 08:05:03;;;;;;;;;;;21.50;36.00;;;;;;5041770;28;20324;-50
2022/02/17 08:07:31;;;;;;;;;;;21.60;35.90;;;;;;5034824;28;19913;-47
2022/02/17 08:09:57;;;;;;;;;;;21.70;35.80;;;;;;5049526;28;19916;-46
2022/02/17 08:12:22;;;;;;;;;;;21.80;35.70;;;;;;5054414;28;19908;-48
2022/02/17 08:14:48;;;;;;;;;;;21.90;35.60;;;;;;5052955;28;19913;-47
2022/02/17 08:17:14;;;;;;;;;;;22.00;35.60;;;;;;5051503;28;20281;-45
2022/02/17 08:19:39;;;;;;;;;;;22.10;35.40;;;;;;5034436;28;19942;-49
2022/02/17 08:22:05;;;;;;;;;;;22.20;35.30;;;;;;5035521;28;19915;-48
2022/02/17 08:24:31;;;;;;;;;;;22.30;35.20;;;;;;5054882;28;19905;-49
2022/02/17 08:26:56;;;;;;;;;;;22.30;35.10;;;;;;5053759;28;19905;-51
2022/02/17 08:29:22;;;;;;;;;;;22.40;35.10;;;;;;5035644;28;19975;-47
2022/02/17 08:31:49;;;;;;;;;;;22.50;35.00;;;;;;5053397;28;20007;-44
2022/02/17 08:34:15;;;;;;;;;;;22.60;34.90;;;;;;5053667;28;19960;-43
2022/02/17 08:36:41;;;;;;;;;;;22.60;34.80;;;;;;5051239;28;19917;-48
2022/02/17 08:39:07;;;;;;;;;;;22.70;34.70;;;;;;5054319;28;19915;-47
2022/02/17 08:41:33;;;;;;;;;;;22.70;34.60;;;;;;5052561;28;20317;-50
2022/02/17 08:43:58;;;;;;;;;;;22.80;34.50;;;;;;5054851;28;19908;-49
2022/02/17 08:46:24;;;;;;;;;;;22.90;34.40;;;;;;5056170;28;19921;-45
2022/02/17 08:48:50;;;;;;;;;;;22.90;34.30;;;;;;5053271;28;19913;-46
2022/02/17 08:51:17;;;;;;;;;;;23.00;34.30;;;;;;5052847;28;19957;-47
2022/02/17 08:53:45;;;;;;;;;;;23.10;34.20;;;;;;5053540;28;19917;-49
2022/02/17 08:56:11;;;;;;;;;;;23.20;34.10;;;;;;5053950;28;19909;-50
2022/02/17 08:58:37;;;;;;;;;;;23.20;34.00;;;;;;5057817;28;19905;-48
2022/02/17 09:01:10;;;;;;;;;;;23.30;34.00;;;;;;5057105;28;20212;-47
2022/02/17 09:03:42;;;;;;;;;;;23.30;33.80;;;;;;5057151;28;20224;-47
2022/02/17 09:06:08;;;;;;;;;;;23.40;33.80;;;;;;5056921;28;19915;-49
2022/02/17 09:08:33;;;;;;;;;;;23.50;33.70;;;;;;5057501;28;19905;-46
2022/02/17 09:10:59;;;;;;;;;;;23.50;33.60;;;;;;5058211;28;19919;-48
2022/02/17 09:13:27;;;;;;;;;;;23.60;33.50;;;;;;5041358;28;20037;-44
2022/02/17 09:15:52;;;;;;;;;;;23.60;33.50;;;;;;5037657;28;19999;-42
2022/02/17 09:18:18;;;;;;;;;;;23.70;33.40;;;;;;5052193;28;19905;-45
2022/02/17 09:20:44;;;;;;;;;;;23.80;33.40;;;;;;5057918;28;19963;-46
2022/02/17 09:23:10;;;;;;;;;;;23.80;33.30;;;;;;5044574;28;19959;-46
2022/02/17 09:25:36;;;;;;;;;;;23.90;33.30;;;;;;5043148;28;21415;-46
2022/02/17 09:28:09;;;;;;;;;;;23.90;33.20;;;;;;5050491;28;19920;-46
2022/02/17 09:30:35;;;;;;;;;;;24.00;33.10;;;;;;5052551;28;20324;-45
2022/02/17 09:33:09;;;;;;;;;;;24.00;33.10;;;;;;5055580;28;19974;-48
2022/02/17 09:35:35;;;;;;;;;;;24.00;33.10;;;;;;5052788;28;19908;-45
2022/02/17 09:38:00;;;;;;;;;;;24.10;33.10;;;;;;5040697;28;19958;-46
2022/02/17 09:40:26;;;;;;;;;;;24.10;33.10;;;;;;5057218;28;20232;-43
2022/02/17 09:42:52;;;;;;;;;;;24.10;33.10;;;;;;5040552;28;20000;-48
2022/02/17 09:45:20;;;;;;;;;;;24.10;33.10;;;;;;5056270;28;19927;-46
2022/02/17 09:47:46;;;;;;;;;;;24.10;33.10;;;;;;5038122;28;19916;-45
2022/02/17 09:50:13;;;;;;;;;;;24.10;33.00;;;;;;5041233;28;19909;-46
2022/02/17 09:52:39;;;;;;;;;;;24.00;32.90;;;;;;5048477;28;19953;-45
2022/02/17 09:55:06;;;;;;;;;;;24.10;33.00;;;;;;5054732;28;19920;-48
2022/02/17 09:57:32;;;;;;;;;;;24.00;33.00;;;;;;5058312;28;19915;-46
2022/02/17 09:59:59;;;;;;;;;;;24.00;33.00;;;;;;5057075;28;19912;-45
2022/02/17 10:02:26;;;;;;;;;;;23.90;32.90;;;;;;5045649;28;20336;-46
2022/02/17 10:04:55;;;;;;;;;;;23.90;32.90;;;;;;5041333;28;19952;-44
2022/02/17 10:07:29;;;;;;;;;;;23.90;32.90;;;;;;5053255;28;19908;-48
2022/02/17 10:09:58;;;;;;;;;;;23.80;32.90;;;;;;5053242;28;19916;-50
2022/02/17 10:12:24;;;;;;;;;;;23.80;32.90;;;;;;5048017;28;19916;-50
2022/02/17 10:14:59;;;;;;;;;;;23.70;32.80;;;;;;5040802;28;19913;-46
2022/02/17 10:17:24;;;;;;;;;;;23.70;32.90;;;;;;5056860;28;19917;-45
2022/02/17 10:19:52;;;;;;;;;;;23.70;32.90;;;;;;5054342;28;20236;-49
2022/02/17 10:22:19;;;;;;;;;;;23.70;32.90;;;;;;5045936;28;19905;-48
2022/02/17 10:24:46;;;;;;;;;;;23.70;32.90;;;;;;5039442;28;20344;-44
2022/02/17 10:27:14;;;;;;;;;;;23.60;32.80;;;;;;5049906;28;19909;-48
2022/02/17 10:29:56;;;;;;;;;;;23.60;32.80;;;;;;5053407;28;19915;-46
2022/02/17 10:32:22;;;;;;;;;;;23.50;32.80;;;;;;5054011;28;20233;-46
2022/02/17 10:35:05;;;;;;;;;;;23.50;32.80;;;;;;5055214;28;19924;-46
2022/02/17 10:37:44;;;;;;;;;;;23.50;32.80;;;;;;5051701;28;19992;-47
2022/02/17 10:40:20;;;;;;;;;;;23.50;32.80;;;;;;5039427;28;19904;-51
2022/02/17 10:43:05;;;;;;;;;;;23.50;32.80;;;;;;5037230;28;19915;-50
2022/02/17 10:45:31;;;;;;;;;;;23.40;32.70;;;;;;5054334;28;20319;-46
2022/02/17 10:48:15;;;;;;;;;;;23.40;32.80;;;;;;5041367;28;19955;-47
2022/02/17 10:50:41;;;;;;;;;;;23.40;32.90;;;;;;5040965;28;19909;-50
2022/02/17 10:53:17;;;;;;;;;;;23.40;33.00;;;;;;5052824;28;19909;-48
2022/02/17 10:55:53;;;;;;;;;;;23.40;33.10;;;;;;5049355;28;19920;-45
2022/02/17 10:58:20;;;;;;;;;;;23.40;33.10;;;;;;5049860;28;20310;-51
2022/02/17 11:00:50;;;;;;;;;;;23.40;33.10;;;;;;5048511;28;19913;-54
2022/02/17 11:03:16;;;;;;;;;;;23.40;33.00;;;;;;5051323;28;19923;-45
2022/02/17 11:05:42;;;;;;;;;;;23.40;33.10;;;;;;5046773;28;19928;-46
2022/02/17 11:08:10;;;;;;;;;;;23.40;33.00;;;;;;5053648;28;19904;-52
2022/02/17 11:10:36;;;;;;;;;;;23.40;33.00;;;;;;5046991;28;19909;-45
2022/02/17 11:13:02;;;;;;;;;;;23.40;33.00;;;;;;5049680;28;19924;-48
2022/02/17 11:15:31;;;;;;;;;;;23.40;32.90;;;;;;5046360;28;19917;-45
2022/02/17 11:17:57;;;;;;;;;;;23.50;33.00;;;;;;5051161;28;19905;-44
2022/02/17 11:20:24;;;;;;;;;;;23.50;32.90;;;;;;5047243;28;19905;-44
2022/02/17 11:22:50;;;;;;;;;;;23.50;32.80;;;;;;5047588;28;19939;-48
2022/02/17 11:25:16;;;;;;;;;;;23.50;32.80;;;;;;5035653;28;19917;-48
2022/02/17 11:27:57;;;;;;;;;;;23.60;32.80;;;;;;5043109;28;19905;-47
2022/02/17 11:30:27;;;;;;;;;;;23.60;32.80;;;;;;5041699;28;19905;-45
2022/02/17 11:33:16;;;;;;;;;;;23.70;32.80;;;;;;5054860;28;19958;-44
2022/02/17 11:35:42;;;;;;;;;;;23.70;32.80;;;;;;5027681;28;19909;-46
2022/02/17 11:38:28;;;;;;;;;;;23.80;32.80;;;;;;5036579;28;19955;-43
2022/02/17 11:41:13;;;;;;;;;;;23.90;32.80;;;;;;5045876;28;19905;-48
2022/02/17 11:43:40;;;;;;;;;;;23.90;32.80;;;;;;5043838;28;19905;-49
2022/02/17 11:46:06;;;;;;;;;;;23.90;32.80;;;;;;5041996;28;19919;-50
2022/02/17 11:48:34;;;;;;;;;;;24.00;32.80;;;;;;5051456;28;19917;-47
2022/02/17 11:51:10;;;;;;;;;;;24.00;32.70;;;;;;5038762;28;19991;-46
2022/02/17 11:53:38;;;;;;;;;;;24.00;32.70;;;;;;5050866;28;19923;-46
2022/02/17 11:56:06;;;;;;;;;;;24.10;32.80;;;;;;5047813;28;19958;-47
2022/02/17 11:58:44;;;;;;;;;;;24.10;32.70;;;;;;5040272;28;19908;-46
2022/02/17 12:01:22;;;;;;;;;;;24.10;32.70;;;;;;5051541;28;19917;-44
2022/02/17 12:04:01;;;;;;;;;;;24.20;32.70;;;;;;5054008;28;19905;-46
2022/02/17 12:06:45;;;;;;;;;;;24.20;32.70;;;;;;5049530;28;19905;-44
2022/02/17 12:09:29;;;;;;;;;;;24.20;32.60;;;;;;5058098;28;19915;-48
2022/02/17 12:11:56;;;;;;;;;;;24.20;32.60;;;;;;5042313;28;19904;-48
2022/02/17 12:14:23;;;;;;;;;;;24.20;32.60;;;;;;5050800;28;19916;-48
2022/02/17 12:16:54;;;;;;;;;;;24.20;32.60;;;;;;5054910;28;19912;-46
2022/02/17 12:19:20;;;;;;;;;;;24.20;32.50;;;;;;5036474;28;19916;-54
2022/02/17 12:21:47;;;;;;;;;;;24.30;32.50;;;;;;5037215;28;20320;-51
2022/02/17 12:24:13;;;;;;;;;;;24.30;33.10;;;;;;5052630;28;19915;-49
2022/02/17 12:26:44;;;;;;;;;;;24.30;32.40;;;;;;5054822;28;20319;-48
2022/02/17 12:29:29;;;;;;;;;;;24.30;32.30;;;;;;5049551;28;19991;-48
2022/02/17 12:32:01;;;;;;;;;;;24.30;32.30;;;;;;5044869;28;19905;-47
2022/02/17 12:34:28;;;;;;;;;;;24.20;32.20;;;;;;5054835;28;19971;-47
2022/02/17 12:36:54;;;;;;;;;;;24.20;32.10;;;;;;5051653;28;19923;-47
2022/02/17 12:39:30;;;;;;;;;;;24.20;32.10;;;;;;5045338;28;20359;-47
2022/02/17 12:41:57;;;;;;;;;;;24.20;32.00;;;;;;5049902;28;20029;-52
2022/02/17 12:44:35;;;;;;;;;;;24.20;31.90;;;;;;5046766;28;19920;-50
2022/02/17 12:47:04;;;;;;;;;;;24.20;31.90;;;;;;5051152;28;19904;-51
2022/02/17 12:49:30;;;;;;;;;;;24.20;31.80;;;;;;5042698;28;19905;-45
2022/02/17 12:52:08;;;;;;;;;;;24.20;31.80;;;;;;5045417;28;19904;-53
2022/02/17 12:54:34;;;;;;;;;;;24.20;31.80;;;;;;5054620;28;19952;-49
2022/02/17 12:57:07;;;;;;;;;;;24.20;31.70;;;;;;5049030;28;19959;-49
2022/02/17 12:59:33;;;;;;;;;;;24.20;31.60;;;;;;5045323;28;20244;-49
2022/02/17 13:01:59;;;;;;;;;;;24.20;31.60;;;;;;5054756;28;19905;-49
2022/02/17 13:04:25;;;;;;;;;;;24.20;31.50;;;;;;5054919;28;19905;-48
2022/02/17 13:06:54;;;;;;;;;;;24.10;31.40;;;;;;5054501;28;20334;-46
2022/02/17 13:09:20;;;;;;;;;;;24.10;31.40;;;;;;5049403;28;19905;-50
2022/02/17 13:11:46;;;;;;;;;;;24.10;31.30;;;;;;5054919;28;19913;-51
2022/02/17 13:14:12;;;;;;;;;;;24.10;31.30;;;;;;5055353;28;19925;-53
2022/02/17 13:16:43;;;;;;;;;;;24.00;31.10;;;;;;5054302;28;19904;-49
2022/02/17 13:19:26;;;;;;;;;;;24.00;31.10;;;;;;5054880;28;19905;-50
2022/02/17 13:21:52;;;;;;;;;;;24.00;31.10;;;;;;5055121;28;19978;-50
2022/02/17 13:24:20;;;;;;;;;;;24.00;31.10;;;;;;5049138;28;19917;-51
2022/02/17 13:26:45;;;;;;;;;;;24.00;31.00;;;;;;5052686;28;19916;-52
2022/02/17 13:29:13;;;;;;;;;;;24.00;31.00;;;;;;5046575;28;20268;-45
2022/02/17 13:31:39;;;;;;;;;;;24.00;31.00;;;;;;5049832;28;19911;-44
2022/02/17 13:34:05;;;;;;;;;;;23.90;30.90;;;;;;5050250;28;19920;-45
2022/02/17 13:36:31;;;;;;;;;;;23.90;31.00;;;;;;5054235;28;19909;-45
2022/02/17 13:39:07;;;;;;;;;;;23.90;31.00;;;;;;5054119;28;20344;-45
2022/02/17 13:41:33;;;;;;;;;;;23.90;31.00;;;;;;5048100;28;19905;-49
2022/02/17 13:43:59;;;;;;;;;;;23.90;31.00;;;;;;5049216;28;20205;-44
2022/02/17 13:46:25;;;;;;;;;;;23.90;31.00;;;;;;5067363;28;19904;-46
2022/02/17 13:48:51;;;;;;;;;;;23.90;31.00;;;;;;5060751;28;20244;-45
2022/02/17 13:51:18;;;;;;;;;;;23.90;31.00;;;;;;5057844;28;19905;-44
2022/02/17 13:53:45;;;;;;;;;;;23.90;31.00;;;;;;5056101;28;19920;-46
2022/02/17 13:56:18;;;;;;;;;;;23.90;31.10;;;;;;5053179;28;19904;-48
2022/02/17 13:58:45;;;;;;;;;;;23.90;31.00;;;;;;5057307;28;19905;-42
2022/02/17 14:01:13;;;;;;;;;;;23.90;31.00;;;;;;5057769;28;19924;-44
2022/02/17 14:03:45;;;;;;;;;;;23.80;30.90;;;;;;5058126;28;19905;-45
2022/02/17 14:06:15;;;;;;;;;;;23.90;31.00;;;;;;5054683;28;19909;-50
2022/02/17 14:08:40;;;;;;;;;;;23.90;31.00;;;;;;5057007;28;19904;-50
2022/02/17 14:11:06;;;;;;;;;;;23.80;30.90;;;;;;5052718;28;19905;-49
2022/02/17 14:13:32;;;;;;;;;;;23.80;30.90;;;;;;5052568;28;19912;-49
2022/02/17 14:15:57;;;;;;;;;;;23.90;31.50;;;;;;5057265;28;19908;-45
2022/02/17 14:18:24;;;;;;;;;;;23.90;30.80;;;;;;5052334;28;19927;-43
2022/02/17 14:20:49;;;;;;;;;;;23.90;30.80;;;;;;5057671;28;19904;-52
2022/02/17 14:23:15;;;;;;;;;;;23.90;30.70;;;;;;5056820;28;20031;-52